sensor_id;sensor_type;location;lat;lon;timestamp;P1;P2;P0
76661;PMS5003;65579;45.534;6.212;2023-02-20T00:00:58;48;44;
76661;PMS5003;65579;45.534;6.212;2023-02-20T00:03:24;44;43;
76661;PMS5003;65579;45.534;6.212;2023-02-20T00:05:49;44;40;
76661;PMS5003;65579;45.534;6.212;2023-02-20T00:08:14;52;47;
76661;PMS5003;65579;45.534;6.212;2023-02-20T00:10:40;50;46;
76661;PMS5003;65579;45.534;6.212;2023-02-20T00:13:06;42;38;
76661;PMS5003;65579;45.534;6.212;2023-02-20T00:15:31;41;37;
76661;PMS5003;65579;45.534;6.212;2023-02-20T00:17:57;50;48;
76661;PMS5003;65579;45.534;6.212;2023-02-20T00:20:22;42;42;
76661;PMS5003;65579;45.534;6.212;2023-02-20T00:22:47;49;44;
76661;PMS5003;65579;45.534;6.212;2023-02-20T00:25:14;41;38;
76661;PMS5003;65579;45.534;6.212;2023-02-20T00:27:38;77;70;
76661;PMS5003;65579;45.534;6.212;2023-02-20T00:30:04;53;43;
76661;PMS5003;65579;45.534;6.212;2023-02-20T00:32:29;106;99;
76661;PMS5003;65579;45.534;6.212;2023-02-20T00:34:55;96;87;
76661;PMS5003;65579;45.534;6.212;2023-02-20T00:37:20;44;42;
76661;PMS5003;65579;45.534;6.212;2023-02-20T00:39:46;52;46;
76661;PMS5003;65579;45.534;6.212;2023-02-20T00:42:11;42;36;
76661;PMS5003;65579;45.534;6.212;2023-02-20T00:44:37;30;27;
76661;PMS5003;65579;45.534;6.212;2023-02-20T00:47:03;38;35;
76661;PMS5003;65579;45.534;6.212;2023-02-20T00:49:28;43;41;
76661;PMS5003;65579;45.534;6.212;2023-02-20T00:51:53;54;47;
76661;PMS5003;65579;45.534;6.212;2023-02-20T00:54:19;46;42;
76661;PMS5003;65579;45.534;6.212;2023-02-20T00:56:45;52;48;
76661;PMS5003;65579;45.534;6.212;2023-02-20T01:01:35;44;40;
76661;PMS5003;65579;45.534;6.212;2023-02-20T01:04:01;51;46;
76661;PMS5003;65579;45.534;6.212;2023-02-20T01:06:26;45;43;
76661;PMS5003;65579;45.534;6.212;2023-02-20T01:11:18;38;34;
76661;PMS5003;65579;45.534;6.212;2023-02-20T01:13:43;39;39;
76661;PMS5003;65579;45.534;6.212;2023-02-20T01:16:08;44;42;
76661;PMS5003;65579;45.534;6.212;2023-02-20T01:18:34;41;39;
76661;PMS5003;65579;45.534;6.212;2023-02-20T01:20:59;47;42;
76661;PMS5003;65579;45.534;6.212;2023-02-20T01:23:24;32;30;
76661;PMS5003;65579;45.534;6.212;2023-02-20T01:25:50;37;35;
76661;PMS5003;65579;45.534;6.212;2023-02-20T01:28:16;34;33;
76661;PMS5003;65579;45.534;6.212;2023-02-20T01:30:41;46;46;
76661;PMS5003;65579;45.534;6.212;2023-02-20T01:33:07;47;43;
76661;PMS5003;65579;45.534;6.212;2023-02-20T01:35:33;41;39;
76661;PMS5003;65579;45.534;6.212;2023-02-20T01:37:58;48;43;
76661;PMS5003;65579;45.534;6.212;2023-02-20T01:40:24;43;41;
76661;PMS5003;65579;45.534;6.212;2023-02-20T01:42:49;39;38;
76661;PMS5003;65579;45.534;6.212;2023-02-20T01:45:15;37;37;
76661;PMS5003;65579;45.534;6.212;2023-02-20T01:47:40;45;43;
76661;PMS5003;65579;45.534;6.212;2023-02-20T01:50:05;49;44;
76661;PMS5003;65579;45.534;6.212;2023-02-20T01:52:30;54;45;
76661;PMS5003;65579;45.534;6.212;2023-02-20T01:54:56;46;44;
76661;PMS5003;65579;45.534;6.212;2023-02-20T01:57:20;49;44;
76661;PMS5003;65579;45.534;6.212;2023-02-20T01:59:45;38;38;
76661;PMS5003;65579;45.534;6.212;2023-02-20T02:02:10;39;37;
76661;PMS5003;65579;45.534;6.212;2023-02-20T02:04:36;41;38;
76661;PMS5003;65579;45.534;6.212;2023-02-20T02:07:02;30;26;
76661;PMS5003;65579;45.534;6.212;2023-02-20T02:09:32;35;35;
76661;PMS5003;65579;45.534;6.212;2023-02-20T02:11:53;27;27;
76661;PMS5003;65579;45.534;6.212;2023-02-20T02:14:18;43;41;
76661;PMS5003;65579;45.534;6.212;2023-02-20T02:16:44;49;43;
76661;PMS5003;65579;45.534;6.212;2023-02-20T02:19:11;41;40;
76661;PMS5003;65579;45.534;6.212;2023-02-20T02:21:39;50;42;
76661;PMS5003;65579;45.534;6.212;2023-02-20T02:24:05;51;47;
76661;PMS5003;65579;45.534;6.212;2023-02-20T02:29:01;47;44;
76661;PMS5003;65579;45.534;6.212;2023-02-20T02:31:22;49;40;
76661;PMS5003;65579;45.534;6.212;2023-02-20T02:36:11;47;43;
76661;PMS5003;65579;45.534;6.212;2023-02-20T02:38:33;40;37;
76661;PMS5003;65579;45.534;6.212;2023-02-20T02:40:59;43;40;
76661;PMS5003;65579;45.534;6.212;2023-02-20T02:43:26;37;34;
76661;PMS5003;65579;45.534;6.212;2023-02-20T02:45:50;36;36;
76661;PMS5003;65579;45.534;6.212;2023-02-20T02:48:16;45;41;
76661;PMS5003;65579;45.534;6.212;2023-02-20T02:50:40;51;51;
76661;PMS5003;65579;45.534;6.212;2023-02-20T02:53:06;42;35;
76661;PMS5003;65579;45.534;6.212;2023-02-20T02:55:31;40;37;
76661;PMS5003;65579;45.534;6.212;2023-02-20T02:57:56;44;40;
76661;PMS5003;65579;45.534;6.212;2023-02-20T03:00:22;39;37;
76661;PMS5003;65579;45.534;6.212;2023-02-20T03:02:49;45;41;
76661;PMS5003;65579;45.534;6.212;2023-02-20T03:05:12;36;33;
76661;PMS5003;65579;45.534;6.212;2023-02-20T03:07:38;33;31;
76661;PMS5003;65579;45.534;6.212;2023-02-20T03:10:05;49;45;
76661;PMS5003;65579;45.534;6.212;2023-02-20T03:12:29;35;35;
76661;PMS5003;65579;45.534;6.212;2023-02-20T03:14:55;34;30;
76661;PMS5003;65579;45.534;6.212;2023-02-20T03:17:23;38;37;
76661;PMS5003;65579;45.534;6.212;2023-02-20T03:19:46;47;43;
76661;PMS5003;65579;45.534;6.212;2023-02-20T03:22:12;36;31;
76661;PMS5003;65579;45.534;6.212;2023-02-20T03:24:37;41;38;
76661;PMS5003;65579;45.534;6.212;2023-02-20T03:27:02;39;36;
76661;PMS5003;65579;45.534;6.212;2023-02-20T03:29:29;33;30;
76661;PMS5003;65579;45.534;6.212;2023-02-20T03:31:54;31;29;
76661;PMS5003;65579;45.534;6.212;2023-02-20T03:34:20;37;33;
76661;PMS5003;65579;45.534;6.212;2023-02-20T03:36:45;37;34;
76661;PMS5003;65579;45.534;6.212;2023-02-20T03:39:11;46;39;
76661;PMS5003;65579;45.534;6.212;2023-02-20T03:41:36;49;41;
76661;PMS5003;65579;45.534;6.212;2023-02-20T03:44:01;49;45;
76661;PMS5003;65579;45.534;6.212;2023-02-20T03:46:27;47;42;
76661;PMS5003;65579;45.534;6.212;2023-02-20T03:48:53;42;40;
76661;PMS5003;65579;45.534;6.212;2023-02-20T03:51:17;46;46;
76661;PMS5003;65579;45.534;6.212;2023-02-20T03:53:43;38;38;
76661;PMS5003;65579;45.534;6.212;2023-02-20T03:56:09;46;40;
76661;PMS5003;65579;45.534;6.212;2023-02-20T03:58:35;44;41;
76661;PMS5003;65579;45.534;6.212;2023-02-20T04:00:59;39;35;
76661;PMS5003;65579;45.534;6.212;2023-02-20T04:03:25;45;41;
76661;PMS5003;65579;45.534;6.212;2023-02-20T04:05:50;44;37;
76661;PMS5003;65579;45.534;6.212;2023-02-20T04:08:17;44;40;
76661;PMS5003;65579;45.534;6.212;2023-02-20T04:10:42;36;36;
76661;PMS5003;65579;45.534;6.212;2023-02-20T04:13:06;38;35;
76661;PMS5003;65579;45.534;6.212;2023-02-20T04:15:32;39;37;
76661;PMS5003;65579;45.534;6.212;2023-02-20T04:17:59;33;32;
76661;PMS5003;65579;45.534;6.212;2023-02-20T04:20:23;36;34;
76661;PMS5003;65579;45.534;6.212;2023-02-20T04:22:48;37;37;
76661;PMS5003;65579;45.534;6.212;2023-02-20T04:25:15;52;45;
76661;PMS5003;65579;45.534;6.212;2023-02-20T04:27:39;51;49;
76661;PMS5003;65579;45.534;6.212;2023-02-20T04:30:05;42;42;
76661;PMS5003;65579;45.534;6.212;2023-02-20T04:32:30;43;37;
76661;PMS5003;65579;45.534;6.212;2023-02-20T04:34:56;46;42;
76661;PMS5003;65579;45.534;6.212;2023-02-20T04:37:21;46;44;
76661;PMS5003;65579;45.534;6.212;2023-02-20T04:39:47;48;45;
76661;PMS5003;65579;45.534;6.212;2023-02-20T04:42:12;53;41;
76661;PMS5003;65579;45.534;6.212;2023-02-20T04:44:38;39;35;
76661;PMS5003;65579;45.534;6.212;2023-02-20T04:47:05;49;45;
76661;PMS5003;65579;45.534;6.212;2023-02-20T04:49:30;40;38;
76661;PMS5003;65579;45.534;6.212;2023-02-20T04:51:56;50;45;
76661;PMS5003;65579;45.534;6.212;2023-02-20T04:54:20;51;50;
76661;PMS5003;65579;45.534;6.212;2023-02-20T04:56:45;50;45;
76661;PMS5003;65579;45.534;6.212;2023-02-20T04:59:11;47;47;
76661;PMS5003;65579;45.534;6.212;2023-02-20T05:01:36;53;49;
76661;PMS5003;65579;45.534;6.212;2023-02-20T05:04:02;51;46;
76661;PMS5003;65579;45.534;6.212;2023-02-20T05:06:28;43;38;
76661;PMS5003;65579;45.534;6.212;2023-02-20T05:08:53;43;40;
76661;PMS5003;65579;45.534;6.212;2023-02-20T05:11:19;41;41;
76661;PMS5003;65579;45.534;6.212;2023-02-20T05:13:44;44;40;
76661;PMS5003;65579;45.534;6.212;2023-02-20T05:16:10;54;47;
76661;PMS5003;65579;45.534;6.212;2023-02-20T05:18:36;47;43;
76661;PMS5003;65579;45.534;6.212;2023-02-20T05:21:01;48;41;
76661;PMS5003;65579;45.534;6.212;2023-02-20T05:23:27;44;42;
76661;PMS5003;65579;45.534;6.212;2023-02-20T05:25:52;47;47;
76661;PMS5003;65579;45.534;6.212;2023-02-20T05:28:17;51;51;
76661;PMS5003;65579;45.534;6.212;2023-02-20T05:30:43;49;43;
76661;PMS5003;65579;45.534;6.212;2023-02-20T05:33:08;59;49;
76661;PMS5003;65579;45.534;6.212;2023-02-20T05:35:33;52;49;
76661;PMS5003;65579;45.534;6.212;2023-02-20T05:37:58;37;35;
76661;PMS5003;65579;45.534;6.212;2023-02-20T05:40:23;47;45;
76661;PMS5003;65579;45.534;6.212;2023-02-20T05:42:49;39;39;
76661;PMS5003;65579;45.534;6.212;2023-02-20T05:45:14;52;48;
76661;PMS5003;65579;45.534;6.212;2023-02-20T05:47:40;43;40;
76661;PMS5003;65579;45.534;6.212;2023-02-20T05:50:05;52;41;
76661;PMS5003;65579;45.534;6.212;2023-02-20T05:52:33;74;61;
76661;PMS5003;65579;45.534;6.212;2023-02-20T05:54:57;58;51;
76661;PMS5003;65579;45.534;6.212;2023-02-20T05:57:23;82;71;
76661;PMS5003;65579;45.534;6.212;2023-02-20T05:59:48;63;61;
76661;PMS5003;65579;45.534;6.212;2023-02-20T06:02:13;86;74;
76661;PMS5003;65579;45.534;6.212;2023-02-20T06:04:39;83;80;
76661;PMS5003;65579;45.534;6.212;2023-02-20T06:07:06;86;76;
76661;PMS5003;65579;45.534;6.212;2023-02-20T06:09:30;46;45;
76661;PMS5003;65579;45.534;6.212;2023-02-20T06:11:55;49;48;
76661;PMS5003;65579;45.534;6.212;2023-02-20T06:14:21;68;57;
76661;PMS5003;65579;45.534;6.212;2023-02-20T06:16:46;71;63;
76661;PMS5003;65579;45.534;6.212;2023-02-20T06:19:13;60;59;
76661;PMS5003;65579;45.534;6.212;2023-02-20T06:21:37;51;49;
76661;PMS5003;65579;45.534;6.212;2023-02-20T06:24:02;52;49;
76661;PMS5003;65579;45.534;6.212;2023-02-20T06:26:28;45;41;
76661;PMS5003;65579;45.534;6.212;2023-02-20T06:28:53;57;51;
76661;PMS5003;65579;45.534;6.212;2023-02-20T06:31:19;44;41;
76661;PMS5003;65579;45.534;6.212;2023-02-20T06:33:43;45;41;
76661;PMS5003;65579;45.534;6.212;2023-02-20T06:36:16;52;47;
76661;PMS5003;65579;45.534;6.212;2023-02-20T06:38:35;52;44;
76661;PMS5003;65579;45.534;6.212;2023-02-20T06:41:00;51;48;
76661;PMS5003;65579;45.534;6.212;2023-02-20T06:43:25;42;41;
76661;PMS5003;65579;45.534;6.212;2023-02-20T06:45:50;40;37;
76661;PMS5003;65579;45.534;6.212;2023-02-20T06:48:16;50;48;
76661;PMS5003;65579;45.534;6.212;2023-02-20T06:50:41;48;47;
76661;PMS5003;65579;45.534;6.212;2023-02-20T06:53:07;60;52;
76661;PMS5003;65579;45.534;6.212;2023-02-20T06:55:33;46;43;
76661;PMS5003;65579;45.534;6.212;2023-02-20T06:57:58;46;42;
76661;PMS5003;65579;45.534;6.212;2023-02-20T07:00:23;46;42;
76661;PMS5003;65579;45.534;6.212;2023-02-20T07:02:49;45;42;
76661;PMS5003;65579;45.534;6.212;2023-02-20T07:05:14;41;37;
76661;PMS5003;65579;45.534;6.212;2023-02-20T07:07:39;46;42;
76661;PMS5003;65579;45.534;6.212;2023-02-20T07:10:04;48;45;
76661;PMS5003;65579;45.534;6.212;2023-02-20T07:12:29;49;49;
76661;PMS5003;65579;45.534;6.212;2023-02-20T07:14:54;47;45;
76661;PMS5003;65579;45.534;6.212;2023-02-20T07:17:20;49;47;
76661;PMS5003;65579;45.534;6.212;2023-02-20T07:19:45;50;47;
76661;PMS5003;65579;45.534;6.212;2023-02-20T07:22:10;46;44;
76661;PMS5003;65579;45.534;6.212;2023-02-20T07:24:36;49;46;
76661;PMS5003;65579;45.534;6.212;2023-02-20T07:27:02;68;59;
76661;PMS5003;65579;45.534;6.212;2023-02-20T07:29:27;62;52;
76661;PMS5003;65579;45.534;6.212;2023-02-20T07:31:53;57;51;
76661;PMS5003;65579;45.534;6.212;2023-02-20T07:34:18;57;53;
76661;PMS5003;65579;45.534;6.212;2023-02-20T07:36:44;57;52;
76661;PMS5003;65579;45.534;6.212;2023-02-20T07:39:11;61;51;
76661;PMS5003;65579;45.534;6.212;2023-02-20T07:41:35;85;82;
76661;PMS5003;65579;45.534;6.212;2023-02-20T07:44:00;77;72;
76661;PMS5003;65579;45.534;6.212;2023-02-20T07:46:26;64;61;
76661;PMS5003;65579;45.534;6.212;2023-02-20T07:48:51;47;46;
76661;PMS5003;65579;45.534;6.212;2023-02-20T07:51:16;58;56;
76661;PMS5003;65579;45.534;6.212;2023-02-20T07:53:46;64;57;
76661;PMS5003;65579;45.534;6.212;2023-02-20T07:56:07;75;66;
76661;PMS5003;65579;45.534;6.212;2023-02-20T07:58:32;54;52;
76661;PMS5003;65579;45.534;6.212;2023-02-20T08:00:58;59;56;
76661;PMS5003;65579;45.534;6.212;2023-02-20T08:03:24;57;51;
76661;PMS5003;65579;45.534;6.212;2023-02-20T08:05:50;61;55;
76661;PMS5003;65579;45.534;6.212;2023-02-20T08:08:15;84;75;
76661;PMS5003;65579;45.534;6.212;2023-02-20T08:10:40;67;61;
76661;PMS5003;65579;45.534;6.212;2023-02-20T08:13:06;62;60;
76661;PMS5003;65579;45.534;6.212;2023-02-20T08:15:31;73;62;
76661;PMS5003;65579;45.534;6.212;2023-02-20T08:17:57;72;67;
76661;PMS5003;65579;45.534;6.212;2023-02-20T08:20:22;65;58;
76661;PMS5003;65579;45.534;6.212;2023-02-20T08:22:48;65;64;
76661;PMS5003;65579;45.534;6.212;2023-02-20T08:25:13;78;75;
76661;PMS5003;65579;45.534;6.212;2023-02-20T08:27:40;58;57;
76661;PMS5003;65579;45.534;6.212;2023-02-20T08:30:04;68;63;
76661;PMS5003;65579;45.534;6.212;2023-02-20T08:32:29;57;54;
76661;PMS5003;65579;45.534;6.212;2023-02-20T08:34:54;92;80;
76661;PMS5003;65579;45.534;6.212;2023-02-20T08:37:20;70;63;
76661;PMS5003;65579;45.534;6.212;2023-02-20T08:39:45;60;55;
76661;PMS5003;65579;45.534;6.212;2023-02-20T08:42:13;54;52;
76661;PMS5003;65579;45.534;6.212;2023-02-20T08:44:36;53;49;
76661;PMS5003;65579;45.534;6.212;2023-02-20T08:47:02;57;57;
76661;PMS5003;65579;45.534;6.212;2023-02-20T08:49:27;64;56;
76661;PMS5003;65579;45.534;6.212;2023-02-20T08:51:53;73;68;
76661;PMS5003;65579;45.534;6.212;2023-02-20T08:54:17;69;66;
76661;PMS5003;65579;45.534;6.212;2023-02-20T08:56:43;78;68;
76661;PMS5003;65579;45.534;6.212;2023-02-20T08:59:08;73;65;
76661;PMS5003;65579;45.534;6.212;2023-02-20T09:01:33;54;50;
76661;PMS5003;65579;45.534;6.212;2023-02-20T09:03:59;76;72;
76661;PMS5003;65579;45.534;6.212;2023-02-20T09:06:24;78;76;
76661;PMS5003;65579;45.534;6.212;2023-02-20T09:08:50;64;60;
76661;PMS5003;65579;45.534;6.212;2023-02-20T09:11:15;65;59;
76661;PMS5003;65579;45.534;6.212;2023-02-20T09:13:41;39;38;
76661;PMS5003;65579;45.534;6.212;2023-02-20T09:16:06;26;26;
76661;PMS5003;65579;45.534;6.212;2023-02-20T09:18:32;45;39;
76661;PMS5003;65579;45.534;6.212;2023-02-20T09:20:58;43;36;
76661;PMS5003;65579;45.534;6.212;2023-02-20T09:23:23;27;24;
76661;PMS5003;65579;45.534;6.212;2023-02-20T09:25:49;32;32;
76661;PMS5003;65579;45.534;6.212;2023-02-20T09:28:15;43;40;
76661;PMS5003;65579;45.534;6.212;2023-02-20T09:30:40;37;35;
76661;PMS5003;65579;45.534;6.212;2023-02-20T09:33:06;32;31;
76661;PMS5003;65579;45.534;6.212;2023-02-20T09:35:32;29;27;
76661;PMS5003;65579;45.534;6.212;2023-02-20T09:37:57;29;28;
76661;PMS5003;65579;45.534;6.212;2023-02-20T09:40:23;26;25;
76661;PMS5003;65579;45.534;6.212;2023-02-20T09:42:52;28;22;
76661;PMS5003;65579;45.534;6.212;2023-02-20T09:45:15;31;29;
76661;PMS5003;65579;45.534;6.212;2023-02-20T09:47:43;26;22;
76661;PMS5003;65579;45.534;6.212;2023-02-20T09:50:08;24;24;
76661;PMS5003;65579;45.534;6.212;2023-02-20T09:52:30;33;30;
76661;PMS5003;65579;45.534;6.212;2023-02-20T09:54:59;26;24;
76661;PMS5003;65579;45.534;6.212;2023-02-20T09:57:22;28;26;
76661;PMS5003;65579;45.534;6.212;2023-02-20T09:59:48;31;26;
76661;PMS5003;65579;45.534;6.212;2023-02-20T10:02:15;27;25;
76661;PMS5003;65579;45.534;6.212;2023-02-20T10:04:39;22;22;
76661;PMS5003;65579;45.534;6.212;2023-02-20T10:07:11;23;22;
76661;PMS5003;65579;45.534;6.212;2023-02-20T10:09:32;25;25;
76661;PMS5003;65579;45.534;6.212;2023-02-20T10:11:57;17;17;
76661;PMS5003;65579;45.534;6.212;2023-02-20T10:14:31;21;21;
76661;PMS5003;65579;45.534;6.212;2023-02-20T10:16:46;21;18;
76661;PMS5003;65579;45.534;6.212;2023-02-20T10:19:13;20;17;
76661;PMS5003;65579;45.534;6.212;2023-02-20T10:21:40;22;18;
76661;PMS5003;65579;45.534;6.212;2023-02-20T10:24:02;26;24;
76661;PMS5003;65579;45.534;6.212;2023-02-20T10:26:28;27;25;
76661;PMS5003;65579;45.534;6.212;2023-02-20T10:28:52;22;22;
76661;PMS5003;65579;45.534;6.212;2023-02-20T10:31:23;23;23;
76661;PMS5003;65579;45.534;6.212;2023-02-20T10:33:44;27;26;
76661;PMS5003;65579;45.534;6.212;2023-02-20T10:36:09;25;19;
76661;PMS5003;65579;45.534;6.212;2023-02-20T10:38:35;27;25;
76661;PMS5003;65579;45.534;6.212;2023-02-20T10:41:01;17;17;
76661;PMS5003;65579;45.534;6.212;2023-02-20T10:43:27;20;18;
76661;PMS5003;65579;45.534;6.212;2023-02-20T10:45:52;21;20;
76661;PMS5003;65579;45.534;6.212;2023-02-20T10:48:15;17;16;
76661;PMS5003;65579;45.534;6.212;2023-02-20T10:50:42;11;10;
76661;PMS5003;65579;45.534;6.212;2023-02-20T10:53:09;14;13;
76661;PMS5003;65579;45.534;6.212;2023-02-20T10:55:32;23;23;
76661;PMS5003;65579;45.534;6.212;2023-02-20T10:57:59;14;14;
76661;PMS5003;65579;45.534;6.212;2023-02-20T11:00:24;29;26;
76661;PMS5003;65579;45.534;6.212;2023-02-20T11:02:51;16;15;
76661;PMS5003;65579;45.534;6.212;2023-02-20T11:05:14;24;22;
76661;PMS5003;65579;45.534;6.212;2023-02-20T11:07:38;17;16;
76661;PMS5003;65579;45.534;6.212;2023-02-20T11:10:04;19;18;
76661;PMS5003;65579;45.534;6.212;2023-02-20T11:12:31;22;22;
76661;PMS5003;65579;45.534;6.212;2023-02-20T11:14:55;23;22;
76661;PMS5003;65579;45.534;6.212;2023-02-20T11:17:20;14;14;
76661;PMS5003;65579;45.534;6.212;2023-02-20T11:19:46;22;20;
76661;PMS5003;65579;45.534;6.212;2023-02-20T11:22:10;22;20;
76661;PMS5003;65579;45.534;6.212;2023-02-20T11:24:35;18;17;
76661;PMS5003;65579;45.534;6.212;2023-02-20T11:27:05;15;15;
76661;PMS5003;65579;45.534;6.212;2023-02-20T11:29:27;14;12;
76661;PMS5003;65579;45.534;6.212;2023-02-20T11:31:51;15;15;
76661;PMS5003;65579;45.534;6.212;2023-02-20T11:34:18;19;19;
76661;PMS5003;65579;45.534;6.212;2023-02-20T11:36:43;14;14;
76661;PMS5003;65579;45.534;6.212;2023-02-20T11:39:13;16;14;
76661;PMS5003;65579;45.534;6.212;2023-02-20T11:41:33;13;13;
76661;PMS5003;65579;45.534;6.212;2023-02-20T11:44:04;14;14;
76661;PMS5003;65579;45.534;6.212;2023-02-20T11:46:23;17;13;
76661;PMS5003;65579;45.534;6.212;2023-02-20T11:53:39;15;15;
76661;PMS5003;65579;45.534;6.212;2023-02-20T11:56:07;14;14;
76661;PMS5003;65579;45.534;6.212;2023-02-20T11:58:30;14;14;
76661;PMS5003;65579;45.534;6.212;2023-02-20T12:00:55;19;17;
76661;PMS5003;65579;45.534;6.212;2023-02-20T12:03:21;12;11;
76661;PMS5003;65579;45.534;6.212;2023-02-20T12:05:46;16;15;
76661;PMS5003;65579;45.534;6.212;2023-02-20T12:08:21;14;14;
76661;PMS5003;65579;45.534;6.212;2023-02-20T12:10:38;16;16;
76661;PMS5003;65579;45.534;6.212;2023-02-20T12:13:03;9;9;
76661;PMS5003;65579;45.534;6.212;2023-02-20T12:15:28;9;9;
76661;PMS5003;65579;45.534;6.212;2023-02-20T12:17:58;12;12;
76661;PMS5003;65579;45.534;6.212;2023-02-20T12:20:19;13;13;
76661;PMS5003;65579;45.534;6.212;2023-02-20T12:22:45;11;11;
76661;PMS5003;65579;45.534;6.212;2023-02-20T12:27:41;20;17;
76661;PMS5003;65579;45.534;6.212;2023-02-20T12:30:02;20;19;
76661;PMS5003;65579;45.534;6.212;2023-02-20T12:32:30;14;13;
76661;PMS5003;65579;45.534;6.212;2023-02-20T12:34:56;14;14;
76661;PMS5003;65579;45.534;6.212;2023-02-20T12:37:18;13;13;
76661;PMS5003;65579;45.534;6.212;2023-02-20T12:39:44;15;15;
76661;PMS5003;65579;45.534;6.212;2023-02-20T12:42:11;15;15;
76661;PMS5003;65579;45.534;6.212;2023-02-20T12:44:38;16;16;
76661;PMS5003;65579;45.534;6.212;2023-02-20T12:47:01;14;13;
76661;PMS5003;65579;45.534;6.212;2023-02-20T12:51:50;13;12;
76661;PMS5003;65579;45.534;6.212;2023-02-20T12:54:19;10;10;
76661;PMS5003;65579;45.534;6.212;2023-02-20T12:56:44;15;13;
76661;PMS5003;65579;45.534;6.212;2023-02-20T12:59:08;12;11;
76661;PMS5003;65579;45.534;6.212;2023-02-20T13:01:31;16;14;
76661;PMS5003;65579;45.534;6.212;2023-02-20T13:03:58;11;11;
76661;PMS5003;65579;45.534;6.212;2023-02-20T13:06:22;17;15;
76661;PMS5003;65579;45.534;6.212;2023-02-20T13:08:50;13;13;
76661;PMS5003;65579;45.534;6.212;2023-02-20T13:11:13;13;13;
76661;PMS5003;65579;45.534;6.212;2023-02-20T13:13:41;17;15;
76661;PMS5003;65579;45.534;6.212;2023-02-20T13:16:04;14;12;
76661;PMS5003;65579;45.534;6.212;2023-02-20T13:18:31;16;13;
76661;PMS5003;65579;45.534;6.212;2023-02-20T13:20:55;12;12;
76661;PMS5003;65579;45.534;6.212;2023-02-20T13:23:26;11;11;
76661;PMS5003;65579;45.534;6.212;2023-02-20T13:25:44;11;11;
76661;PMS5003;65579;45.534;6.212;2023-02-20T13:30:34;13;13;
76661;PMS5003;65579;45.534;6.212;2023-02-20T13:35:33;15;15;
76661;PMS5003;65579;45.534;6.212;2023-02-20T13:37:55;11;11;
76661;PMS5003;65579;45.534;6.212;2023-02-20T13:42:42;9;9;
76661;PMS5003;65579;45.534;6.212;2023-02-20T13:47:34;12;10;
76661;PMS5003;65579;45.534;6.212;2023-02-20T13:49:58;10;10;
76661;PMS5003;65579;45.534;6.212;2023-02-20T13:52:30;12;12;
76661;PMS5003;65579;45.534;6.212;2023-02-20T13:54:48;11;11;
76661;PMS5003;65579;45.534;6.212;2023-02-20T13:57:16;12;10;
76661;PMS5003;65579;45.534;6.212;2023-02-20T13:59:39;12;12;
76661;PMS5003;65579;45.534;6.212;2023-02-20T14:04:30;9;9;
76661;PMS5003;65579;45.534;6.212;2023-02-20T14:06:55;15;11;
76661;PMS5003;65579;45.534;6.212;2023-02-20T14:11:45;10;10;
76661;PMS5003;65579;45.534;6.212;2023-02-20T14:14:18;11;10;
76661;PMS5003;65579;45.534;6.212;2023-02-20T14:16:38;12;11;
76661;PMS5003;65579;45.534;6.212;2023-02-20T14:19:03;7;7;
76661;PMS5003;65579;45.534;6.212;2023-02-20T14:21:27;10;10;
76661;PMS5003;65579;45.534;6.212;2023-02-20T14:26:20;14;12;
76661;PMS5003;65579;45.534;6.212;2023-02-20T14:28:45;8;7;
76661;PMS5003;65579;45.534;6.212;2023-02-20T14:33:35;6;5;
76661;PMS5003;65579;45.534;6.212;2023-02-20T14:36:05;6;6;
76661;PMS5003;65579;45.534;6.212;2023-02-20T14:38:29;7;7;
76661;PMS5003;65579;45.534;6.212;2023-02-20T14:40:50;7;7;
76661;PMS5003;65579;45.534;6.212;2023-02-20T14:43:16;9;9;
76661;PMS5003;65579;45.534;6.212;2023-02-20T14:45:41;8;8;
76661;PMS5003;65579;45.534;6.212;2023-02-20T14:48:16;10;9;
76661;PMS5003;65579;45.534;6.212;2023-02-20T14:50:32;9;9;
76661;PMS5003;65579;45.534;6.212;2023-02-20T14:53:01;9;9;
76661;PMS5003;65579;45.534;6.212;2023-02-20T14:55:24;10;10;
76661;PMS5003;65579;45.534;6.212;2023-02-20T14:57:48;9;9;
76661;PMS5003;65579;45.534;6.212;2023-02-20T15:02:40;7;7;
76661;PMS5003;65579;45.534;6.212;2023-02-20T15:05:05;9;9;
76661;PMS5003;65579;45.534;6.212;2023-02-20T15:07:30;8;7;
76661;PMS5003;65579;45.534;6.212;2023-02-20T15:14:45;9;7;
76661;PMS5003;65579;45.534;6.212;2023-02-20T15:19:37;9;9;
76661;PMS5003;65579;45.534;6.212;2023-02-20T15:22:01;10;10;
76661;PMS5003;65579;45.534;6.212;2023-02-20T15:24:29;8;8;
76661;PMS5003;65579;45.534;6.212;2023-02-20T15:26:51;4;4;
76661;PMS5003;65579;45.534;6.212;2023-02-20T15:29:19;8;8;
76661;PMS5003;65579;45.534;6.212;2023-02-20T15:31:41;7;6;
76661;PMS5003;65579;45.534;6.212;2023-02-20T15:34:12;6;6;
76661;PMS5003;65579;45.534;6.212;2023-02-20T15:36:37;6;6;
76661;PMS5003;65579;45.534;6.212;2023-02-20T15:38:58;7;7;
76661;PMS5003;65579;45.534;6.212;2023-02-20T15:41:23;7;7;
76661;PMS5003;65579;45.534;6.212;2023-02-20T15:43:48;6;6;
76661;PMS5003;65579;45.534;6.212;2023-02-20T15:46:13;6;6;
76661;PMS5003;65579;45.534;6.212;2023-02-20T15:48:38;10;5;
76661;PMS5003;65579;45.534;6.212;2023-02-20T15:51:04;7;6;
76661;PMS5003;65579;45.534;6.212;2023-02-20T15:53:29;6;5;
76661;PMS5003;65579;45.534;6.212;2023-02-20T15:55:54;5;5;
76661;PMS5003;65579;45.534;6.212;2023-02-20T15:58:21;6;6;
76661;PMS5003;65579;45.534;6.212;2023-02-20T16:00:45;8;6;
76661;PMS5003;65579;45.534;6.212;2023-02-20T16:03:10;7;6;
76661;PMS5003;65579;45.534;6.212;2023-02-20T16:05:35;6;6;
76661;PMS5003;65579;45.534;6.212;2023-02-20T16:08:01;5;5;
76661;PMS5003;65579;45.534;6.212;2023-02-20T16:10:26;5;5;
76661;PMS5003;65579;45.534;6.212;2023-02-20T16:12:51;7;7;
76661;PMS5003;65579;45.534;6.212;2023-02-20T16:15:17;5;5;
76661;PMS5003;65579;45.534;6.212;2023-02-20T16:17:42;5;5;
76661;PMS5003;65579;45.534;6.212;2023-02-20T16:22:32;4;4;
76661;PMS5003;65579;45.534;6.212;2023-02-20T16:24:57;7;7;
76661;PMS5003;65579;45.534;6.212;2023-02-20T16:27:23;5;5;
76661;PMS5003;65579;45.534;6.212;2023-02-20T16:29:48;11;9;
76661;PMS5003;65579;45.534;6.212;2023-02-20T16:32:14;4;4;
76661;PMS5003;65579;45.534;6.212;2023-02-20T16:34:38;7;5;
76661;PMS5003;65579;45.534;6.212;2023-02-20T17:35:13;34;28;
76661;PMS5003;65579;45.534;6.212;2023-02-20T17:37:38;19;19;
76661;PMS5003;65579;45.534;6.212;2023-02-20T17:40:03;23;22;
76661;PMS5003;65579;45.534;6.212;2023-02-20T17:42:28;19;18;
76661;PMS5003;65579;45.534;6.212;2023-02-20T17:44:54;15;14;
76661;PMS5003;65579;45.534;6.212;2023-02-20T17:47:19;14;13;
76661;PMS5003;65579;45.534;6.212;2023-02-20T17:49:47;13;12;
76661;PMS5003;65579;45.534;6.212;2023-02-20T18:13:58;29;27;
76661;PMS5003;65579;45.534;6.212;2023-02-20T18:16:24;21;19;
76661;PMS5003;65579;45.534;6.212;2023-02-20T18:18:49;28;24;